Time;durP1;ratioP1;P1;durP2;ratioP2;P2;SDS_P1;SDS_P2;PMS_P1;PMS_P2;Temp;Humidity;BMP_temperature;BMP_pressure;BME280_temperature;BME280_humidity;BME280_pressure;Samples;Min_cycle;Max_cycle;Signal;HPM_P1;HPM_P2
2023/06/29 00:00:57;;;;;;;8.95;4.63;;;;;;;12.70;79.51;96216.50;2115631;28;20047;-58
2023/06/29 00:01:58;;;;;;;6.72;3.97;;;;;;;12.70;80.08;96216.50;2116370;28;20043;-59
2023/06/29 00:02:59;;;;;;;9.15;5.07;;;;;;;12.67;79.51;96216.66;2115108;28;20059;-59
2023/06/29 00:04:01;;;;;;;7.13;4.47;;;;;;;12.64;80.50;96215.97;2116132;28;20046;-59
2023/06/29 00:05:02;;;;;;;7.30;4.55;;;;;;;12.63;80.42;96207.31;2116132;28;20043;-58
2023/06/29 00:06:03;;;;;;;8.65;4.22;;;;;;;12.66;80.21;96214.97;2116360;28;20051;-58
2023/06/29 00:07:04;;;;;;;9.25;4.70;;;;;;;12.67;80.54;96221.00;2116417;28;20047;-58
2023/06/29 00:08:06;;;;;;;7.85;4.60;;;;;;;12.66;80.15;96212.34;2115493;28;20059;-58
2023/06/29 00:09:07;;;;;;;9.85;5.03;;;;;;;12.66;79.88;96214.13;2116183;28;20035;-58
2023/06/29 00:10:09;;;;;;;8.50;4.90;;;;;;;12.57;80.10;96197.22;2115301;28;20062;-59
2023/06/29 00:11:10;;;;;;;7.40;4.60;;;;;;;12.67;80.54;96214.06;2115818;28;20064;-59
2023/06/29 00:12:11;;;;;;;9.25;4.47;;;;;;;12.66;80.63;96220.16;2115194;28;20347;-58
2023/06/29 00:13:12;;;;;;;8.05;5.03;;;;;;;12.65;80.15;96212.44;2115851;28;20062;-59
2023/06/29 00:14:13;;;;;;;7.45;5.38;;;;;;;12.67;80.48;96214.06;2115516;28;20051;-58
2023/06/29 00:15:15;;;;;;;6.78;4.32;;;;;;;12.66;80.61;96208.91;2116340;28;20046;-58
2023/06/29 00:16:17;;;;;;;7.88;4.93;;;;;;;12.60;80.58;96204.84;2116466;28;20058;-58
2023/06/29 00:17:19;;;;;;;8.75;4.72;;;;;;;12.58;80.24;96202.31;2116315;28;20047;-59
2023/06/29 00:18:20;;;;;;;9.70;5.15;;;;;;;12.49;80.25;96188.94;2116119;28;20047;-59
2023/06/29 00:19:21;;;;;;;10.02;5.10;;;;;;;12.68;80.47;96209.69;2116533;28;20092;-58
2023/06/29 00:20:24;;;;;;;7.05;4.63;;;;;;;12.71;79.88;96212.13;2116038;28;20044;-59
2023/06/29 00:21:28;;;;;;;8.20;4.57;;;;;;;12.68;79.58;96207.06;2115370;28;20427;-59
2023/06/29 00:22:29;;;;;;;7.47;4.80;;;;;;;12.68;79.34;96202.69;2116339;28;20097;-59
2023/06/29 00:23:32;;;;;;;7.97;5.30;;;;;;;12.70;79.22;96206.06;2116288;28;20040;-58
2023/06/29 00:24:42;;;;;;;9.48;4.80;;;;;;;12.72;79.62;96208.56;2116037;28;20048;-59
2023/06/29 00:25:44;;;;;;;11.13;4.72;;;;;;;12.68;79.45;96212.28;2116256;28;20040;-59
2023/06/29 00:26:45;;;;;;;7.07;5.00;;;;;;;12.66;79.54;96207.13;2115183;28;20475;-59
2023/06/29 00:27:47;;;;;;;9.23;5.15;;;;;;;12.64;79.35;96206.38;2106899;28;20048;-59
2023/06/29 00:28:48;;;;;;;12.30;5.15;;;;;;;12.66;79.96;96212.34;2106424;28;20048;-59
2023/06/29 00:29:50;;;;;;;7.53;5.10;;;;;;;12.57;79.66;96192.00;2116004;28;20040;-58
2023/06/29 00:30:51;;;;;;;8.07;4.78;;;;;;;12.64;79.23;96198.56;2115967;28;20040;-58
2023/06/29 00:31:53;;;;;;;9.77;5.03;;;;;;;12.66;79.30;96203.69;2106500;28;20175;-59
2023/06/29 00:32:54;;;;;;;9.13;4.75;;;;;;;12.69;79.09;96208.75;2106939;28;20070;-58
2023/06/29 00:33:56;;;;;;;9.25;5.18;;;;;;;12.66;79.33;96206.31;2115195;28;20052;-59
2023/06/29 00:34:57;;;;;;;8.82;4.68;;;;;;;12.63;79.49;96204.69;2115982;28;20474;-58
2023/06/29 00:35:58;;;;;;;6.20;4.45;;;;;;;12.62;79.45;96204.78;2106797;28;20055;-58
2023/06/29 00:37:00;;;;;;;8.65;5.00;;;;;;;12.61;79.57;96203.09;2098340;28;20043;-58
2023/06/29 00:38:01;;;;;;;10.43;5.55;;;;;;;12.60;79.44;96202.25;2097933;28;20111;-59
2023/06/29 00:39:05;;;;;;;8.88;5.70;;;;;;;12.60;79.97;96194.44;2098671;28;20051;-59
2023/06/29 00:40:07;;;;;;;8.00;5.43;;;;;;;12.58;79.56;96196.28;2097749;28;20103;-59
2023/06/29 00:41:08;;;;;;;10.07;5.40;;;;;;;12.56;80.25;96198.09;2106934;28;20048;-58
2023/06/29 00:42:09;;;;;;;7.93;5.13;;;;;;;12.44;79.37;96178.75;2115170;28;20056;-59
2023/06/29 00:43:11;;;;;;;8.05;5.03;;;;;;;12.52;80.07;96202.66;2116096;28;20043;-59
2023/06/29 00:44:13;;;;;;;6.63;4.88;;;;;;;12.50;79.87;96198.44;2106742;28;20051;-58
2023/06/29 00:45:14;;;;;;;8.40;5.15;;;;;;;12.47;79.92;96199.44;2097757;28;20056;-59
2023/06/29 00:46:17;;;;;;;10.70;5.30;;;;;;;12.48;79.66;96206.34;2106296;28;20056;-59
2023/06/29 00:47:19;;;;;;;9.30;5.13;;;;;;;12.39;80.54;96193.78;2106824;28;20422;-59
2023/06/29 00:48:20;;;;;;;8.98;5.22;;;;;;;12.46;80.10;96209.94;2098519;28;20500;-58
2023/06/29 00:49:22;;;;;;;8.68;4.55;;;;;;;12.43;80.55;96203.13;2098844;28;20036;-58
2023/06/29 00:50:23;;;;;;;8.50;5.55;;;;;;;12.41;80.70;96197.16;2098027;28;20056;-59
2023/06/29 00:51:24;;;;;;;6.72;4.82;;;;;;;12.40;80.59;96200.66;2081840;28;20042;-58
2023/06/29 00:52:25;;;;;;;9.30;5.03;;;;;;;12.39;80.44;96196.38;2089492;28;20053;-59
2023/06/29 00:53:26;;;;;;;7.60;5.20;;;;;;;12.31;80.95;96194.16;2098137;28;20057;-58
2023/06/29 00:54:27;;;;;;;8.93;5.57;;;;;;;12.35;81.03;96194.88;2098519;28;20051;-57
2023/06/29 00:55:29;;;;;;;8.48;5.88;;;;;;;12.34;80.39;96196.63;2106890;28;20051;-59
2023/06/29 00:56:34;;;;;;;8.68;5.50;;;;;;;12.34;80.30;96200.97;2106043;28;20522;-59
2023/06/29 00:57:35;;;;;;;6.88;5.15;;;;;;;12.32;80.85;96198.47;2106660;28;20059;-59
2023/06/29 00:58:36;;;;;;;9.05;5.55;;;;;;;12.21;80.65;96182.53;2106615;28;20051;-59
2023/06/29 00:59:39;;;;;;;9.63;5.18;;;;;;;12.29;81.02;96198.59;2107069;28;20048;-58
2023/06/29 01:00:40;;;;;;;6.43;4.95;;;;;;;12.27;81.15;96190.06;2115935;28;20058;-59
2023/06/29 01:01:41;;;;;;;5.43;4.60;;;;;;;12.27;80.71;96197.00;2115703;28;20062;-59
2023/06/29 01:02:42;;;;;;;8.38;5.53;;;;;;;12.26;80.80;96196.16;2106675;28;20048;-58
2023/06/29 01:03:43;;;;;;;8.90;5.45;;;;;;;12.18;81.61;96181.84;2106857;28;20056;-59
2023/06/29 01:04:45;;;;;;;9.45;4.68;;;;;;;12.25;81.27;96193.66;2115012;28;20047;-59
2023/06/29 01:05:47;;;;;;;10.73;5.25;;;;;;;12.23;80.98;96196.31;2097866;28;20056;-58
2023/06/29 01:07:09;;;;;;;8.10;5.13;;;;;;;12.25;80.67;96198.84;2089964;28;20045;-58
2023/06/29 01:08:18;;;;;;;8.32;5.20;;;;;;;12.23;80.68;96195.47;2084346;28;20504;-58
2023/06/29 01:09:19;;;;;;;8.90;5.07;;;;;;;12.21;81.46;96197.31;2091411;28;20045;-59
2023/06/29 01:10:23;;;;;;;7.53;5.15;;;;;;;12.08;81.13;96173.66;2098689;28;20412;-58
2023/06/29 01:11:24;;;;;;;13.80;5.55;;;;;;;12.20;81.22;96200.84;2088889;28;20064;-59
2023/06/29 01:12:25;;;;;;;7.55;5.32;;;;;;;12.20;81.05;96199.09;2081132;28;20531;-59
2023/06/29 01:13:27;;;;;;;16.25;5.45;;;;;;;12.14;81.20;96187.22;2082218;28;20532;-58
2023/06/29 01:14:28;;;;;;;7.70;5.25;;;;;;;12.11;81.12;96182.16;2081857;28;20045;-59
2023/06/29 01:15:31;;;;;;;8.32;5.60;;;;;;;12.06;81.57;96175.53;2089552;28;20330;-58
2023/06/29 01:16:33;;;;;;;14.30;6.10;;;;;;;12.12;81.35;96190.81;2089373;28;20059;-58
2023/06/29 01:17:34;;;;;;;9.38;5.90;;;;;;;12.14;81.75;96187.22;2081360;28;20053;-58
2023/06/29 01:18:35;;;;;;;9.60;5.90;;;;;;;12.13;82.05;96189.88;2097416;28;20056;-58
2023/06/29 01:19:37;;;;;;;8.20;5.63;;;;;;;12.03;81.73;96167.84;2098268;28;20044;-58
2023/06/29 01:20:38;;;;;;;9.35;5.95;;;;;;;12.10;81.69;96190.88;2097892;28;20053;-58
2023/06/29 01:21:44;;;;;;;9.38;5.32;;;;;;;11.93;81.98;96164.03;2090206;28;20472;-59
2023/06/29 01:22:56;;;;;;;11.55;6.07;;;;;;;11.96;81.60;96171.69;2090466;28;20041;-59
2023/06/29 01:23:58;;;;;;;7.75;5.40;;;;;;;12.04;82.34;96186.00;2091827;28;20052;-59
2023/06/29 01:24:59;;;;;;;9.63;5.57;;;;;;;12.04;82.11;96187.75;2089890;28;20040;-59
2023/06/29 01:26:03;;;;;;;8.50;5.72;;;;;;;12.03;82.38;96186.06;2081523;28;20060;-59
2023/06/29 01:27:06;;;;;;;11.07;6.35;;;;;;;11.99;82.07;96180.16;2090277;28;20040;-58
2023/06/29 01:28:08;;;;;;;8.88;5.55;;;;;;;11.97;82.37;96182.00;2106001;28;20087;-59
2023/06/29 01:29:09;;;;;;;8.40;5.53;;;;;;;11.98;82.96;96186.31;2097243;28;20063;-59
2023/06/29 01:30:11;;;;;;;8.90;6.00;;;;;;;11.98;82.63;96186.31;2089876;28;20432;-58
2023/06/29 01:31:13;;;;;;;8.95;5.28;;;;;;;11.96;82.54;96180.31;2089220;28;20045;-58
2023/06/29 01:32:14;;;;;;;10.02;6.38;;;;;;;11.97;83.25;96184.59;2097889;28;20075;-58
2023/06/29 01:33:16;;;;;;;10.00;5.75;;;;;;;11.91;82.85;96180.53;2098771;28;20051;-59
2023/06/29 01:34:17;;;;;;;7.05;5.50;;;;;;;11.91;83.18;96175.34;2097609;28;20567;-59
2023/06/29 01:35:18;;;;;;;10.57;6.18;;;;;;;11.92;83.51;96183.97;2081242;28;20049;-59
2023/06/29 01:36:33;;;;;;;8.15;5.68;;;;;;;11.91;82.78;96179.72;2089533;28;20052;-59
2023/06/29 01:37:44;;;;;;;8.73;5.75;;;;;;;11.88;83.33;96185.91;2098291;28;20056;-59
2023/06/29 01:39:01;;;;;;;10.30;5.78;;;;;;;11.86;83.35;96174.72;2083230;28;20049;-58
2023/06/29 01:40:06;;;;;;;7.30;5.68;;;;;;;11.67;83.11;96143.53;2086881;28;20389;-58
2023/06/29 01:41:07;;;;;;;10.38;5.68;;;;;;;11.82;83.29;96177.53;2090367;28;20164;-59
2023/06/29 01:42:09;;;;;;;10.95;6.38;;;;;;;11.74;84.12;96161.47;2073916;28;20465;-59
2023/06/29 01:43:10;;;;;;;9.73;5.97;;;;;;;11.77;84.06;96172.56;2089972;28;20053;-59
2023/06/29 01:44:14;;;;;;;8.15;5.65;;;;;;;11.73;83.91;96173.59;2097873;28;20052;-59
2023/06/29 01:45:15;;;;;;;7.88;5.43;;;;;;;11.74;84.06;96175.31;2097388;28;20074;-59
2023/06/29 01:46:17;;;;;;;11.60;5.60;;;;;;;11.74;84.68;96172.72;2097475;28;20079;-59
2023/06/29 01:47:20;;;;;;;9.60;5.57;;;;;;;11.75;84.26;96173.56;2098081;28;20041;-58
2023/06/29 01:48:23;;;;;;;9.52;5.45;;;;;;;11.73;83.98;96171.00;2089865;28;20049;-59
2023/06/29 01:49:24;;;;;;;7.57;5.35;;;;;;;11.69;84.02;96167.72;2089930;28;20060;-58
2023/06/29 01:50:25;;;;;;;7.38;4.97;;;;;;;11.68;84.38;96168.66;2097915;28;20419;-59
2023/06/29 01:51:26;;;;;;;7.80;5.10;;;;;;;11.69;84.78;96167.72;2089263;28;20135;-58
2023/06/29 01:52:28;;;;;;;9.80;5.70;;;;;;;11.69;84.79;96166.88;2097856;28;20377;-59
2023/06/29 01:53:30;;;;;;;9.07;5.60;;;;;;;11.68;84.55;96170.38;2081331;28;20053;-59
2023/06/29 01:54:31;;;;;;;10.18;5.53;;;;;;;11.68;84.81;96173.00;2081300;28;20045;-58
2023/06/29 01:55:32;;;;;;;9.43;5.03;;;;;;;11.67;84.44;96176.53;2098604;28;20044;-59
2023/06/29 01:56:34;;;;;;;10.35;5.57;;;;;;;11.62;84.07;96162.91;2097936;28;20067;-58
2023/06/29 01:57:37;;;;;;;8.65;5.60;;;;;;;11.62;84.44;96168.09;2098572;28;20048;-58
2023/06/29 01:58:38;;;;;;;7.78;5.35;;;;;;;11.62;84.63;96168.94;2097879;28;20044;-58
2023/06/29 01:59:40;;;;;;;8.52;5.40;;;;;;;11.64;84.78;96169.72;2089311;28;20052;-58
2023/06/29 02:00:41;;;;;;;8.13;5.38;;;;;;;11.63;84.65;96173.22;2097850;28;20464;-58
2023/06/29 02:01:42;;;;;;;9.48;5.25;;;;;;;11.62;84.53;96163.72;2098403;28;20040;-59
2023/06/29 02:02:43;;;;;;;7.90;4.97;;;;;;;11.62;84.72;96163.72;2098595;28;20048;-58
2023/06/29 02:03:44;;;;;;;8.80;5.20;;;;;;;11.60;85.48;96168.19;2098226;28;20510;-58
2023/06/29 02:04:45;;;;;;;6.88;4.68;;;;;;;11.59;84.97;96165.66;2097337;28;20041;-59
2023/06/29 02:05:46;;;;;;;6.63;4.72;;;;;;;11.58;85.33;96161.38;2097559;28;20064;-59
2023/06/29 02:06:47;;;;;;;7.78;4.93;;;;;;;11.55;84.54;96172.78;2097858;28;20064;-58
2023/06/29 02:07:48;;;;;;;7.97;5.68;;;;;;;11.53;85.23;96164.19;2097443;28;20052;-59
2023/06/29 02:08:50;;;;;;;8.60;5.05;;;;;;;11.51;84.84;96160.81;2098365;28;20040;-58
2023/06/29 02:09:51;;;;;;;9.88;5.55;;;;;;;11.41;85.09;96151.75;2097843;28;20056;-59
2023/06/29 02:10:52;;;;;;;9.10;5.35;;;;;;;11.49;85.19;96167.84;2097995;28;20404;-59
2023/06/29 02:11:53;;;;;;;11.40;5.47;;;;;;;11.49;85.09;96165.25;2089274;28;20053;-59
2023/06/29 02:12:54;;;;;;;7.88;4.97;;;;;;;11.46;85.89;96158.41;2097761;28;20052;-58
2023/06/29 02:13:55;;;;;;;9.43;5.72;;;;;;;11.48;85.38;96163.56;2096733;28;20538;-58
2023/06/29 02:14:57;;;;;;;7.55;5.30;;;;;;;11.46;86.12;96162.78;2088811;28;20052;-59
2023/06/29 02:15:58;;;;;;;7.07;5.03;;;;;;;11.40;86.11;96150.09;2080918;28;20053;-59
2023/06/29 02:16:59;;;;;;;8.75;5.35;;;;;;;11.47;85.45;96164.50;2088849;28;20049;-59
2023/06/29 02:18:00;;;;;;;7.00;5.00;;;;;;;11.45;85.70;96161.13;2089601;28;20407;-59
2023/06/29 02:19:01;;;;;;;8.93;4.90;;;;;;;11.46;85.73;96163.63;2089217;28;20049;-59
2023/06/29 02:20:02;;;;;;;8.40;4.53;;;;;;;11.49;85.26;96160.03;2097675;28;20049;-59
2023/06/29 02:21:03;;;;;;;6.40;4.90;;;;;;;11.47;85.30;96157.53;2098250;28;20036;-58
2023/06/29 02:22:04;;;;;;;7.75;4.95;;;;;;;11.46;85.49;96163.63;2097832;28;20048;-58
2023/06/29 02:23:05;;;;;;;7.40;5.20;;;;;;;11.43;85.60;96155.13;2097519;28;20063;-59
2023/06/29 02:24:07;;;;;;;6.18;4.97;;;;;;;11.40;85.72;96148.31;2098384;28;20044;-59
2023/06/29 02:25:09;;;;;;;6.45;4.82;;;;;;;11.42;85.99;96159.50;2097946;28;20400;-58
2023/06/29 02:26:11;;;;;;;9.05;5.88;;;;;;;11.37;86.04;96153.69;2098279;28;20033;-59
2023/06/29 02:27:12;;;;;;;9.20;4.93;;;;;;;11.38;85.57;96152.75;2098244;28;20052;-58
2023/06/29 02:28:13;;;;;;;11.35;5.25;;;;;;;11.39;85.63;96157.06;2097943;28;20454;-59
2023/06/29 02:29:15;;;;;;;9.90;5.30;;;;;;;11.35;86.35;96149.47;2097833;28;20052;-59
2023/06/29 02:30:16;;;;;;;8.60;5.25;;;;;;;11.35;86.71;96154.66;2088498;28;20080;-58
2023/06/29 02:31:17;;;;;;;8.45;5.25;;;;;;;11.36;86.00;96151.13;2097615;28;20383;-59
2023/06/29 02:32:19;;;;;;;9.57;4.50;;;;;;;11.36;86.05;96157.22;2097639;28;20048;-59
2023/06/29 02:33:20;;;;;;;7.15;4.78;;;;;;;11.35;86.63;96150.31;2097570;28;20044;-59
2023/06/29 02:34:21;;;;;;;7.75;4.82;;;;;;;11.33;86.24;96146.09;2080544;28;20456;-58
2023/06/29 02:35:22;;;;;;;8.73;5.78;;;;;;;11.34;86.55;96148.63;2089303;28;20052;-59
2023/06/29 02:36:23;;;;;;;7.70;5.35;;;;;;;11.32;86.87;96152.22;2097129;28;20060;-59
2023/06/29 02:37:25;;;;;;;9.60;5.78;;;;;;;11.30;86.01;96146.25;2097655;28;20044;-59
2023/06/29 02:38:26;;;;;;;10.85;5.45;;;;;;;11.29;86.51;96152.38;2089518;28;20049;-59
2023/06/29 02:39:27;;;;;;;10.63;5.60;;;;;;;11.26;86.94;96148.16;2097513;28;20499;-58
2023/06/29 02:40:28;;;;;;;7.88;5.20;;;;;;;11.23;86.47;96150.91;2098305;28;20102;-58
2023/06/29 02:41:29;;;;;;;8.20;6.00;;;;;;;11.21;86.88;96145.75;2098170;28;20064;-58
2023/06/29 02:42:31;;;;;;;9.35;5.45;;;;;;;11.23;87.36;96151.75;2097370;28;20067;-59
2023/06/29 02:43:33;;;;;;;9.25;5.40;;;;;;;11.24;87.69;96149.97;2097670;28;20056;-59
2023/06/29 02:44:35;;;;;;;7.82;5.22;;;;;;;11.25;87.93;96149.91;2096803;28;20214;-58
2023/06/29 02:45:36;;;;;;;8.20;4.78;;;;;;;11.26;88.04;96150.75;2089647;28;20457;-59
2023/06/29 02:46:37;;;;;;;9.32;5.60;;;;;;;11.24;87.75;96149.97;2088677;28;20056;-59
2023/06/29 02:47:38;;;;;;;7.53;5.45;;;;;;;11.18;87.77;96143.31;2096982;28;20063;-59
2023/06/29 02:48:39;;;;;;;8.25;5.13;;;;;;;11.18;87.61;96143.31;2097575;28;20528;-58
2023/06/29 02:49:40;;;;;;;8.88;5.45;;;;;;;11.15;87.33;96143.47;2089373;28;20053;-58
2023/06/29 02:50:41;;;;;;;7.95;5.75;;;;;;;11.10;87.72;96142.84;2089361;28;20141;-58
2023/06/29 02:51:42;;;;;;;9.10;5.65;;;;;;;11.04;87.63;96138.78;2097751;28;20066;-58
2023/06/29 02:52:46;;;;;;;10.63;5.45;;;;;;;11.10;87.35;96147.19;2097425;28;20052;-59
2023/06/29 02:53:47;;;;;;;11.73;6.00;;;;;;;11.07;88.10;96149.94;2089150;28;20045;-58
2023/06/29 02:54:49;;;;;;;7.78;5.30;;;;;;;11.06;87.98;96149.06;2088725;28;20060;-59
2023/06/29 02:55:52;;;;;;;7.32;5.05;;;;;;;11.04;88.54;96151.75;2089455;28;20056;-58
2023/06/29 02:56:53;;;;;;;7.72;5.13;;;;;;;11.01;88.21;96148.44;2096975;28;20059;-59
2023/06/29 02:57:54;;;;;;;8.18;5.85;;;;;;;11.01;87.86;96143.25;2097737;28;20441;-58
2023/06/29 02:58:55;;;;;;;6.85;4.75;;;;;;;11.00;87.98;96150.22;2097545;28;20040;-59
2023/06/29 02:59:59;;;;;;;9.77;4.97;;;;;;;11.00;88.77;96144.16;2096768;28;20052;-58
2023/06/29 03:01:00;;;;;;;7.10;5.78;;;;;;;10.90;88.00;96133.34;2097815;28;20437;-58
2023/06/29 03:02:02;;;;;;;9.13;5.97;;;;;;;10.99;88.85;96148.53;2089248;28;20055;-59
2023/06/29 03:03:03;;;;;;;7.00;5.70;;;;;;;10.99;88.70;96139.91;2097365;28;20048;-59
2023/06/29 03:04:04;;;;;;;8.95;5.55;;;;;;;10.98;89.18;96144.22;2097522;28;20049;-59
2023/06/29 03:05:05;;;;;;;11.63;5.82;;;;;;;10.97;89.13;96141.72;2088523;28;20053;-58
2023/06/29 03:06:06;;;;;;;8.23;5.38;;;;;;;10.97;89.49;96145.16;2088939;28;20045;-59
2023/06/29 03:07:07;;;;;;;8.98;5.95;;;;;;;10.96;88.65;96143.47;2086923;28;20048;-58
2023/06/29 03:08:08;;;;;;;7.65;5.10;;;;;;;10.94;89.51;96140.09;2089145;28;20044;-59
2023/06/29 03:09:10;;;;;;;9.18;5.75;;;;;;;10.93;89.27;96145.34;2105986;28;20040;-59
2023/06/29 03:10:11;;;;;;;10.05;6.18;;;;;;;10.96;89.70;96142.63;2105770;28;20052;-59
2023/06/29 03:11:12;;;;;;;7.97;5.80;;;;;;;10.97;89.14;96141.72;2105685;28;20056;-58
2023/06/29 03:12:13;;;;;;;8.70;5.70;;;;;;;10.86;89.65;96121.44;2106070;28;20056;-59
2023/06/29 03:13:14;;;;;;;8.00;5.22;;;;;;;10.96;89.74;96147.81;2106199;28;20052;-58
2023/06/29 03:14:15;;;;;;;8.02;6.05;;;;;;;10.95;89.39;96146.13;2106450;28;20051;-58
2023/06/29 03:15:16;;;;;;;9.48;5.88;;;;;;;10.93;88.94;96141.03;2106088;28;20411;-59
2023/06/29 03:16:17;;;;;;;9.23;5.82;;;;;;;10.92;89.04;96141.09;2106043;28;20051;-59
2023/06/29 03:17:18;;;;;;;12.07;5.75;;;;;;;10.90;89.79;96142.91;2106400;28;20051;-59
2023/06/29 03:18:19;;;;;;;9.65;6.20;;;;;;;10.88;89.83;96148.19;2106413;28;20039;-58
2023/06/29 03:19:21;;;;;;;8.35;5.75;;;;;;;10.89;89.26;96143.84;2106575;28;20081;-58
2023/06/29 03:20:22;;;;;;;10.95;6.00;;;;;;;10.85;89.30;96144.88;2106513;28;20048;-59
2023/06/29 03:21:23;;;;;;;10.43;6.30;;;;;;;10.87;89.40;96143.06;2105736;28;20447;-59
2023/06/29 03:22:26;;;;;;;10.13;5.72;;;;;;;10.78;89.66;96128.75;2097798;28;20045;-58
2023/06/29 03:23:27;;;;;;;6.82;5.28;;;;;;;10.79;89.71;96128.66;2105698;28;20052;-58
2023/06/29 03:24:28;;;;;;;10.40;5.90;;;;;;;10.88;89.11;96147.31;2106168;28;20067;-58
2023/06/29 03:25:29;;;;;;;10.77;5.63;;;;;;;10.82;89.74;96130.25;2106652;28;20051;-58
2023/06/29 03:26:30;;;;;;;7.45;5.60;;;;;;;10.90;89.24;96145.50;2106289;28;20383;-58
2023/06/29 03:27:31;;;;;;;8.90;5.63;;;;;;;10.90;89.82;96142.91;2106069;28;20055;-58
2023/06/29 03:28:33;;;;;;;10.68;5.50;;;;;;;10.89;89.85;96139.47;2105938;28;20059;-58
2023/06/29 03:29:34;;;;;;;7.28;5.40;;;;;;;10.90;89.51;96140.31;2106516;28;20388;-59
2023/06/29 03:30:35;;;;;;;9.68;6.10;;;;;;;10.89;89.51;96141.22;2106050;28;20052;-58
2023/06/29 03:31:36;;;;;;;9.43;6.05;;;;;;;10.87;89.62;96137.84;2106582;28;20048;-58
2023/06/29 03:32:37;;;;;;;8.55;6.13;;;;;;;10.89;90.22;96143.84;2106446;28;20418;-58
2023/06/29 03:33:38;;;;;;;9.95;5.53;;;;;;;10.91;90.42;96144.59;2106389;28;20047;-58
2023/06/29 03:34:39;;;;;;;7.63;5.63;;;;;;;10.94;90.30;96149.66;2106331;28;20044;-58
2023/06/29 03:35:40;;;;;;;12.52;5.70;;;;;;;10.93;90.56;96146.22;2107913;28;20401;-59
2023/06/29 03:36:41;;;;;;;9.82;5.60;;;;;;;10.93;90.40;96146.22;2108087;28;20343;-58
2023/06/29 03:37:42;;;;;;;9.02;5.63;;;;;;;10.93;89.59;96147.97;2107896;28;20056;-59
2023/06/29 03:38:43;;;;;;;9.10;5.07;;;;;;;10.95;90.63;96152.16;2108033;28;20056;-58
2023/06/29 03:39:45;;;;;;;9.50;5.65;;;;;;;10.94;90.57;96137.50;2107805;28;20451;-58
2023/06/29 03:40:46;;;;;;;7.97;6.03;;;;;;;10.94;90.37;96142.69;2108066;28;20135;-58
2023/06/29 03:41:47;;;;;;;7.55;5.50;;;;;;;10.94;89.61;96150.50;2107689;28;20048;-58
2023/06/29 03:42:49;;;;;;;8.70;5.40;;;;;;;10.96;90.33;96148.69;2107897;28;20044;-58
2023/06/29 03:43:50;;;;;;;7.53;5.68;;;;;;;10.97;90.31;96159.91;2108089;28;20048;-58
2023/06/29 03:44:51;;;;;;;8.38;5.50;;;;;;;10.97;90.29;96154.72;2108091;28;20398;-59
2023/06/29 03:45:52;;;;;;;10.77;6.40;;;;;;;10.98;90.79;96149.44;2107331;28;20036;-58
2023/06/29 03:46:54;;;;;;;8.85;6.03;;;;;;;10.89;90.55;96130.84;2107354;28;20043;-58
2023/06/29 03:47:55;;;;;;;8.85;5.72;;;;;;;10.99;90.87;96143.34;2108231;28;20392;-58
2023/06/29 03:48:56;;;;;;;8.73;5.50;;;;;;;11.05;90.68;96147.41;2107937;28;20036;-58
2023/06/29 03:49:57;;;;;;;7.53;5.72;;;;;;;11.04;90.37;96141.38;2108065;28;20040;-58
2023/06/29 03:50:58;;;;;;;7.70;6.32;;;;;;;11.08;90.59;96146.41;2107622;28;20509;-59
2023/06/29 03:51:59;;;;;;;12.52;6.72;;;;;;;11.12;90.48;96145.34;2107836;28;20040;-59
2023/06/29 03:53:01;;;;;;;13.13;5.93;;;;;;;11.13;90.14;96140.09;2107467;28;20048;-59
2023/06/29 03:54:02;;;;;;;12.35;6.38;;;;;;;11.11;90.53;96136.72;2107755;28;20048;-59
2023/06/29 03:55:03;;;;;;;8.48;5.72;;;;;;;11.16;90.83;96134.75;2107454;28;20058;-59
2023/06/29 03:56:04;;;;;;;10.07;5.72;;;;;;;11.22;90.75;96146.59;2108051;28;20036;-58
2023/06/29 03:57:05;;;;;;;9.25;5.78;;;;;;;11.23;90.75;96136.16;2107542;28;20060;-58
2023/06/29 03:58:07;;;;;;;8.95;6.22;;;;;;;11.27;90.61;96144.63;2107488;28;20059;-59
2023/06/29 03:59:08;;;;;;;11.13;5.80;;;;;;;11.30;90.47;96138.44;2107783;28;20063;-58
2023/06/29 04:00:09;;;;;;;9.60;6.03;;;;;;;11.31;90.69;96140.97;2106633;28;20517;-59
2023/06/29 04:01:16;;;;;;;11.50;5.47;;;;;;;11.35;90.52;96134.69;2107380;28;20106;-58
2023/06/29 04:02:17;;;;;;;9.07;5.75;;;;;;;11.39;90.25;96140.63;2107956;28;20051;-58
2023/06/29 04:03:18;;;;;;;9.95;5.93;;;;;;;11.41;90.48;96142.22;2107408;28;20062;-58
2023/06/29 04:04:19;;;;;;;8.57;5.72;;;;;;;11.43;90.25;96139.53;2107886;28;20048;-59
2023/06/29 04:05:20;;;;;;;9.88;5.85;;;;;;;11.47;90.04;96139.31;2107727;28;20051;-58
2023/06/29 04:06:22;;;;;;;9.63;6.22;;;;;;;11.50;90.16;96133.13;2107755;28;20044;-59
2023/06/29 04:07:23;;;;;;;7.47;5.22;;;;;;;11.54;90.33;96141.63;2106655;28;20410;-58
2023/06/29 04:08:24;;;;;;;10.30;6.47;;;;;;;11.55;89.51;96136.34;2106734;28;20048;-58
2023/06/29 04:09:25;;;;;;;9.77;6.20;;;;;;;11.60;90.23;96136.97;2107908;28;20047;-58
2023/06/29 04:10:26;;;;;;;9.23;5.70;;;;;;;11.66;88.59;96134.06;2107472;28;20428;-58
2023/06/29 04:11:27;;;;;;;8.45;5.68;;;;;;;11.73;88.26;96131.97;2107681;28;20040;-59
2023/06/29 04:12:28;;;;;;;10.07;5.40;;;;;;;11.77;88.79;96132.69;2107645;28;20047;-59
2023/06/29 04:13:30;;;;;;;10.68;5.13;;;;;;;11.78;88.00;96127.41;2107706;28;20419;-59
2023/06/29 04:14:31;;;;;;;10.60;5.43;;;;;;;11.84;88.55;96126.25;2107282;28;20056;-58
2023/06/29 04:15:32;;;;;;;9.98;5.25;;;;;;;11.89;87.90;96134.69;2107653;28;20119;-59
2023/06/29 04:16:33;;;;;;;12.15;5.75;;;;;;;11.96;87.64;96130.03;2106525;28;20446;-59
2023/06/29 04:17:34;;;;;;;10.48;5.50;;;;;;;12.02;87.23;96132.31;2107190;28;20048;-59
2023/06/29 04:18:36;;;;;;;8.88;5.55;;;;;;;12.05;86.25;96130.41;2107651;28;20059;-58
2023/06/29 04:19:37;;;;;;;7.00;5.68;;;;;;;12.08;86.16;96130.28;2107781;28;20391;-59
2023/06/29 04:20:38;;;;;;;8.18;5.40;;;;;;;12.14;85.83;96135.16;2107591;28;20035;-59
2023/06/29 04:21:40;;;;;;;7.95;4.97;;;;;;;12.20;85.53;96133.16;2107518;28;20052;-59
2023/06/29 04:22:41;;;;;;;12.35;5.43;;;;;;;12.25;85.82;96134.59;2107581;28;20048;-58
2023/06/29 04:23:42;;;;;;;9.45;5.13;;;;;;;12.29;85.05;96135.28;2106402;28;20056;-59
2023/06/29 04:24:43;;;;;;;6.97;4.88;;;;;;;12.34;85.66;96135.88;2098947;28;20040;-59
2023/06/29 04:25:44;;;;;;;12.40;6.85;;;;;;;12.38;85.30;96140.03;2098674;28;20036;-59
2023/06/29 04:26:45;;;;;;;8.38;5.53;;;;;;;12.41;84.66;96137.25;2106851;28;20044;-58
2023/06/29 04:27:46;;;;;;;7.63;5.28;;;;;;;12.46;84.48;96137.84;2107372;28;20036;-58
2023/06/29 04:28:47;;;;;;;7.90;5.20;;;;;;;12.53;83.97;96136.59;2106683;28;20051;-58
2023/06/29 04:29:48;;;;;;;7.70;5.53;;;;;;;12.55;83.10;96126.09;2106942;28;20055;-58
2023/06/29 04:30:49;;;;;;;9.98;5.25;;;;;;;12.60;83.06;96129.31;2107738;28;20395;-58
2023/06/29 04:31:51;;;;;;;8.15;5.07;;;;;;;12.64;82.76;96133.41;2107428;28;20052;-58
2023/06/29 04:32:53;;;;;;;7.78;5.10;;;;;;;12.64;82.71;96116.94;2107164;28;20044;-59
2023/06/29 04:33:54;;;;;;;8.30;5.22;;;;;;;12.78;82.19;96124.88;2106244;28;20396;-58
2023/06/29 04:34:55;;;;;;;9.13;5.63;;;;;;;12.84;82.15;96123.72;2106182;28;20356;-59
2023/06/29 04:35:57;;;;;;;9.10;5.43;;;;;;;12.88;82.15;96123.44;2107385;28;20047;-58
2023/06/29 04:37:02;;;;;;;8.57;5.20;;;;;;;12.92;81.66;96122.38;2107351;28;20055;-59
2023/06/29 04:38:04;;;;;;;9.27;4.78;;;;;;;12.89;81.41;96106.06;2107791;28;20040;-58
2023/06/29 04:39:05;;;;;;;7.68;5.25;;;;;;;13.02;81.47;96122.72;2107171;28;20052;-58
2023/06/29 04:40:12;;;;;;;6.32;4.90;;;;;;;12.98;80.65;96106.38;2107525;28;20127;-58
2023/06/29 04:41:13;;;;;;;11.55;5.38;;;;;;;13.14;80.18;96118.59;2107416;28;20051;-59
2023/06/29 04:42:17;;;;;;;8.07;4.95;;;;;;;13.17;80.68;96131.44;2107150;28;20448;-58
2023/06/29 04:43:18;;;;;;;9.25;5.05;;;;;;;13.19;80.04;96119.16;2107414;28;20044;-58
2023/06/29 04:44:21;;;;;;;11.10;5.07;;;;;;;13.24;79.47;96127.59;2107159;28;20060;-59
2023/06/29 04:45:24;;;;;;;8.27;5.18;;;;;;;13.30;79.54;96123.81;2106870;28;20472;-58
2023/06/29 04:46:27;;;;;;;7.45;4.57;;;;;;;13.36;79.46;96124.31;2106930;28;20062;-59
2023/06/29 04:47:32;;;;;;;8.50;4.90;;;;;;;13.30;78.96;96109.00;2107252;28;20317;-58
2023/06/29 04:48:36;;;;;;;10.52;4.70;;;;;;;13.42;78.58;96121.38;2107404;28;20043;-58
2023/06/29 04:49:39;;;;;;;8.52;5.30;;;;;;;13.49;77.81;96121.84;2107194;28;20056;-57
2023/06/29 04:50:40;;;;;;;7.13;4.90;;;;;;;13.46;77.52;96125.47;2106846;28;20063;-58